Time;durP1;ratioP1;P1;durP2;ratioP2;P2;SDS_P1;SDS_P2;PMS_P1;PMS_P2;Temp;Humidity;BMP_temperature;BMP_pressure;BME280_temperature;BME280_humidity;BME280_pressure;Samples;Min_cycle;Max_cycle;Signal;HPM_P1;HPM_P2
2023/05/20 00:01:30;;;;;;;;;;;15.90;71.30;;;;;;5035639;28;87274;-41
2023/05/20 00:03:56;;;;;;;;;;;15.80;71.20;;;;;;5036629;28;87106;-41
2023/05/20 00:06:22;;;;;;;;;;;15.80;71.30;;;;;;5032558;28;89281;-41
2023/05/20 00:08:47;;;;;;;;;;;15.80;71.20;;;;;;5033395;28;86993;-41
2023/05/20 00:11:13;;;;;;;;;;;15.80;71.30;;;;;;5032319;27;88581;-40
2023/05/20 00:13:38;;;;;;;;;;;15.80;71.90;;;;;;5032428;28;89291;-41
2023/05/20 00:16:04;;;;;;;;;;;15.80;71.20;;;;;;5034421;28;86454;-41
2023/05/20 00:18:31;;;;;;;;;;;15.80;71.20;;;;;;5032611;28;87971;-41
2023/05/20 00:20:57;;;;;;;;;;;15.80;71.30;;;;;;5033706;28;89753;-41
2023/05/20 00:23:22;;;;;;;;;;;15.80;71.20;;;;;;5031480;28;88058;-41
2023/05/20 00:25:48;;;;;;;;;;;15.80;71.20;;;;;;5036812;28;89946;-41
2023/05/20 00:28:14;;;;;;;;;;;15.80;71.20;;;;;;5031595;28;87188;-41
2023/05/20 00:30:40;;;;;;;;;;;15.70;71.20;;;;;;5034770;28;89164;-41
2023/05/20 00:33:06;;;;;;;;;;;15.70;71.30;;;;;;5030654;28;88348;-41
2023/05/20 00:35:32;;;;;;;;;;;15.70;71.20;;;;;;5026961;28;87369;-41
2023/05/20 00:37:57;;;;;;;;;;;15.70;71.30;;;;;;5034846;28;88774;-41
2023/05/20 00:40:24;;;;;;;;;;;15.70;71.20;;;;;;5031494;28;88486;-41
2023/05/20 00:42:49;;;;;;;;;;;15.70;71.20;;;;;;5034320;28;87170;-41
2023/05/20 00:45:15;;;;;;;;;;;15.70;71.20;;;;;;5034203;27;88861;-41
2023/05/20 00:47:41;;;;;;;;;;;15.70;71.20;;;;;;5033394;28;87915;-41
2023/05/20 00:50:08;;;;;;;;;;;15.70;71.30;;;;;;5032191;27;88087;-41
2023/05/20 00:52:35;;;;;;;;;;;15.70;71.20;;;;;;5033123;27;88074;-41
2023/05/20 00:55:00;;;;;;;;;;;15.70;71.20;;;;;;5032080;28;87070;-41
2023/05/20 00:57:26;;;;;;;;;;;15.70;71.20;;;;;;5032984;28;89223;-41
2023/05/20 00:59:52;;;;;;;;;;;15.70;71.30;;;;;;5032171;28;89752;-41
2023/05/20 01:02:17;;;;;;;;;;;15.60;71.30;;;;;;5032499;28;87097;-41
2023/05/20 01:04:46;;;;;;;;;;;15.60;71.30;;;;;;5032652;27;87857;-41
2023/05/20 01:07:12;;;;;;;;;;;15.60;71.20;;;;;;5035141;28;89408;-41
2023/05/20 01:09:38;;;;;;;;;;;15.60;71.20;;;;;;5032636;27;88796;-41
2023/05/20 01:12:12;;;;;;;;;;;15.60;71.20;;;;;;5031130;28;88984;-41
2023/05/20 01:14:59;;;;;;;;;;;15.60;71.20;;;;;;5031918;28;87009;-41
2023/05/20 01:17:26;;;;;;;;;;;15.50;71.30;;;;;;5029102;28;87815;-41
2023/05/20 01:19:53;;;;;;;;;;;15.60;71.30;;;;;;5032918;28;89701;-41
2023/05/20 01:22:23;;;;;;;;;;;15.60;71.20;;;;;;5030054;28;87189;-41
2023/05/20 01:24:52;;;;;;;;;;;15.60;71.30;;;;;;5032692;27;88704;-41
2023/05/20 01:27:19;;;;;;;;;;;15.50;71.20;;;;;;5031510;28;89250;-41
2023/05/20 01:29:49;;;;;;;;;;;15.50;71.20;;;;;;5035890;27;86234;-41
2023/05/20 01:32:26;;;;;;;;;;;15.50;71.20;;;;;;5031694;28;88612;-41
2023/05/20 01:34:52;;;;;;;;;;;15.50;71.20;;;;;;5030460;28;87245;-41
2023/05/20 01:37:18;;;;;;;;;;;15.50;71.20;;;;;;5032543;28;88807;-41
2023/05/20 01:39:44;;;;;;;;;;;15.50;71.20;;;;;;5030736;28;89088;-41
2023/05/20 01:42:10;;;;;;;;;;;15.50;71.20;;;;;;5032964;28;87105;-41
2023/05/20 01:44:36;;;;;;;;;;;15.50;71.30;;;;;;5031500;27;87958;-41
2023/05/20 01:47:01;;;;;;;;;;;15.50;71.30;;;;;;5031979;28;89428;-41
2023/05/20 01:49:27;;;;;;;;;;;15.50;71.20;;;;;;5031684;28;87217;-41
2023/05/20 01:51:53;;;;;;;;;;;15.50;71.20;;;;;;5034441;28;88809;-40
2023/05/20 01:54:19;;;;;;;;;;;15.50;71.20;;;;;;5032617;28;86349;-41
2023/05/20 01:56:45;;;;;;;;;;;15.40;71.20;;;;;;5031536;28;88280;-41
2023/05/20 01:59:10;;;;;;;;;;;15.40;71.20;;;;;;5032200;28;89471;-41
2023/05/20 02:01:36;;;;;;;;;;;15.40;71.20;;;;;;5030411;28;88061;-41
2023/05/20 02:04:02;;;;;;;;;;;15.40;71.20;;;;;;5032778;27;89962;-41
2023/05/20 02:06:27;;;;;;;;;;;15.40;71.20;;;;;;5029831;28;88554;-41
2023/05/20 02:08:53;;;;;;;;;;;15.40;71.20;;;;;;5033556;28;87224;-41
2023/05/20 02:11:18;;;;;;;;;;;15.40;71.20;;;;;;5030038;28;87837;-41
2023/05/20 02:13:44;;;;;;;;;;;15.40;71.20;;;;;;5036269;28;89880;-41
2023/05/20 02:16:09;;;;;;;;;;;15.40;71.10;;;;;;5029544;27;89214;-41
2023/05/20 02:18:35;;;;;;;;;;;15.40;71.10;;;;;;5033298;28;88489;-41
2023/05/20 02:21:02;;;;;;;;;;;15.30;71.10;;;;;;5033559;28;87144;-41
2023/05/20 02:23:28;;;;;;;;;;;15.30;71.20;;;;;;5030084;27;89169;-41
2023/05/20 02:25:53;;;;;;;;;;;15.30;71.30;;;;;;5031731;28;90494;-41
2023/05/20 02:28:19;;;;;;;;;;;15.30;71.30;;;;;;5030445;28;86841;-41
2023/05/20 02:30:44;;;;;;;;;;;15.30;71.20;;;;;;5032025;28;88768;-41
2023/05/20 02:33:11;;;;;;;;;;;15.30;71.20;;;;;;5031078;27;89074;-41
2023/05/20 02:35:37;;;;;;;;;;;15.30;71.20;;;;;;5038040;28;87734;-41
2023/05/20 02:38:02;;;;;;;;;;;15.20;71.20;;;;;;5034337;27;89427;-40
2023/05/20 02:40:28;;;;;;;;;;;15.30;71.30;;;;;;5034452;28;87164;-41
2023/05/20 02:42:53;;;;;;;;;;;15.20;71.20;;;;;;5033019;27;88973;-41
2023/05/20 02:45:19;;;;;;;;;;;15.20;71.20;;;;;;5035178;28;89243;-41
2023/05/20 02:47:44;;;;;;;;;;;15.20;71.20;;;;;;5033691;28;87696;-41
2023/05/20 02:50:10;;;;;;;;;;;15.20;71.20;;;;;;5035117;28;89032;-41
2023/05/20 02:52:35;;;;;;;;;;;15.20;71.20;;;;;;5032883;28;89201;-41
2023/05/20 02:55:01;;;;;;;;;;;15.10;71.30;;;;;;5039083;28;87096;-41
2023/05/20 02:57:27;;;;;;;;;;;15.20;71.30;;;;;;5032356;28;89179;-41
2023/05/20 02:59:53;;;;;;;;;;;15.10;71.20;;;;;;5036429;28;87093;-40
2023/05/20 03:02:19;;;;;;;;;;;15.10;71.10;;;;;;5028764;28;87166;-41
2023/05/20 03:04:45;;;;;;;;;;;15.10;71.00;;;;;;5035376;28;89729;-41
2023/05/20 03:07:10;;;;;;;;;;;15.10;71.10;;;;;;5033562;28;86622;-41
2023/05/20 03:09:36;;;;;;;;;;;15.10;71.20;;;;;;5035661;28;87346;-41
2023/05/20 03:12:02;;;;;;;;;;;15.10;71.10;;;;;;5032735;28;89435;-41
2023/05/20 03:14:27;;;;;;;;;;;15.10;71.10;;;;;;5034461;28;88014;-41
2023/05/20 03:16:54;;;;;;;;;;;15.10;71.20;;;;;;5036100;28;90117;-41
2023/05/20 03:19:20;;;;;;;;;;;15.10;71.10;;;;;;5034675;28;87276;-41
2023/05/20 03:21:46;;;;;;;;;;;15.10;71.20;;;;;;5033930;28;87597;-41
2023/05/20 03:24:11;;;;;;;;;;;15.10;71.10;;;;;;5033947;28;89481;-41
2023/05/20 03:26:41;;;;;;;;;;;15.10;71.20;;;;;;5034227;28;87080;-41
2023/05/20 03:29:07;;;;;;;;;;;15.10;71.10;;;;;;5034377;28;88773;-41
2023/05/20 03:31:33;;;;;;;;;;;15.00;71.10;;;;;;5034207;28;88839;-41
2023/05/20 03:33:58;;;;;;;;;;;15.00;71.10;;;;;;5033383;28;87099;-40
2023/05/20 03:36:24;;;;;;;;;;;15.00;71.00;;;;;;5034271;27;89039;-41
2023/05/20 03:38:49;;;;;;;;;;;15.00;71.10;;;;;;5035076;28;90601;-41
2023/05/20 03:41:15;;;;;;;;;;;15.00;71.10;;;;;;5034796;27;89977;-41
2023/05/20 03:43:40;;;;;;;;;;;15.00;71.10;;;;;;5032340;28;89593;-41
2023/05/20 03:46:06;;;;;;;;;;;14.90;70.90;;;;;;5034319;28;87092;-41
2023/05/20 03:48:31;;;;;;;;;;;14.90;71.00;;;;;;5031782;28;89115;-40
2023/05/20 03:50:57;;;;;;;;;;;15.00;71.10;;;;;;5034823;28;89501;-41
2023/05/20 03:53:23;;;;;;;;;;;14.90;71.10;;;;;;5027867;28;87102;-41
2023/05/20 03:55:48;;;;;;;;;;;14.90;71.10;;;;;;5035534;28;89343;-41
2023/05/20 03:58:14;;;;;;;;;;;14.90;71.00;;;;;;5031754;28;89712;-41
2023/05/20 04:00:40;;;;;;;;;;;14.90;71.10;;;;;;5036358;28;87163;-41
2023/05/20 04:03:05;;;;;;;;;;;14.90;71.10;;;;;;5031585;28;90276;-41
2023/05/20 04:05:31;;;;;;;;;;;14.90;71.00;;;;;;5033909;28;87142;-40
2023/05/20 04:07:56;;;;;;;;;;;14.90;71.10;;;;;;5032743;27;88775;-40
2023/05/20 04:10:22;;;;;;;;;;;14.90;70.90;;;;;;5032906;28;89271;-40
2023/05/20 04:12:48;;;;;;;;;;;14.90;71.00;;;;;;5033131;28;87354;-41
2023/05/20 04:15:13;;;;;;;;;;;14.90;70.90;;;;;;5033192;28;89432;-41
2023/05/20 04:17:39;;;;;;;;;;;14.90;70.90;;;;;;5033391;28;89957;-41
2023/05/20 04:20:06;;;;;;;;;;;14.90;71.00;;;;;;5033115;28;86422;-41
2023/05/20 04:22:32;;;;;;;;;;;14.90;70.90;;;;;;5036489;27;87130;-40
2023/05/20 04:24:58;;;;;;;;;;;14.90;71.00;;;;;;5032336;28;87147;-41
2023/05/20 04:27:24;;;;;;;;;;;14.80;71.00;;;;;;5033585;27;88050;-41
2023/05/20 04:29:51;;;;;;;;;;;14.80;71.00;;;;;;5031652;28;89109;-41
2023/05/20 04:32:17;;;;;;;;;;;14.80;70.90;;;;;;5034136;28;87081;-41
2023/05/20 04:34:44;;;;;;;;;;;14.80;70.90;;;;;;5031594;28;88828;-41
2023/05/20 04:37:09;;;;;;;;;;;14.80;70.90;;;;;;5034139;28;89503;-41
2023/05/20 04:39:35;;;;;;;;;;;14.80;70.80;;;;;;5031438;28;87122;-41
2023/05/20 04:42:01;;;;;;;;;;;14.80;70.90;;;;;;5034689;28;88907;-40
2023/05/20 04:44:28;;;;;;;;;;;14.80;70.90;;;;;;5033924;28;89204;-41
2023/05/20 04:46:54;;;;;;;;;;;14.80;70.90;;;;;;5022667;28;88387;-41
2023/05/20 04:49:20;;;;;;;;;;;14.80;70.90;;;;;;5030483;28;89643;-40
2023/05/20 04:51:48;;;;;;;;;;;14.80;70.90;;;;;;5033523;28;88426;-41
2023/05/20 04:54:16;;;;;;;;;;;14.80;70.90;;;;;;5034665;27;89893;-41
2023/05/20 04:56:42;;;;;;;;;;;14.80;70.80;;;;;;5030440;28;89565;-41
2023/05/20 04:59:09;;;;;;;;;;;14.80;70.90;;;;;;5034716;28;87019;-40
2023/05/20 05:01:35;;;;;;;;;;;14.80;70.80;;;;;;5030986;27;87573;-41
2023/05/20 05:04:01;;;;;;;;;;;14.80;70.80;;;;;;5036531;28;89206;-40
2023/05/20 05:06:26;;;;;;;;;;;14.80;70.90;;;;;;5031018;27;88687;-41
2023/05/20 05:08:52;;;;;;;;;;;14.80;70.90;;;;;;5033569;28;88704;-41
2023/05/20 05:11:18;;;;;;;;;;;14.80;70.80;;;;;;5031631;28;88021;-40
2023/05/20 05:13:43;;;;;;;;;;;14.80;70.80;;;;;;5031748;28;90388;-41
2023/05/20 05:16:09;;;;;;;;;;;14.80;70.90;;;;;;5031048;28;89623;-41
2023/05/20 05:18:34;;;;;;;;;;;14.80;70.90;;;;;;5032280;28;87153;-40
2023/05/20 05:21:00;;;;;;;;;;;14.80;70.80;;;;;;5032819;28;87452;-41
2023/05/20 05:23:26;;;;;;;;;;;14.80;70.80;;;;;;5031627;28;89516;-41
2023/05/20 05:25:52;;;;;;;;;;;14.80;70.90;;;;;;5035856;28;87028;-41
2023/05/20 05:28:17;;;;;;;;;;;14.80;71.00;;;;;;5030937;28;89523;-41
2023/05/20 05:30:43;;;;;;;;;;;14.80;71.00;;;;;;5033322;28;87117;-41
2023/05/20 05:33:08;;;;;;;;;;;14.80;71.00;;;;;;5031066;28;88566;-41
2023/05/20 05:35:34;;;;;;;;;;;14.80;71.00;;;;;;5033275;28;89496;-41
2023/05/20 05:37:59;;;;;;;;;;;14.80;71.00;;;;;;5030049;28;87099;-41
2023/05/20 05:40:25;;;;;;;;;;;14.80;71.10;;;;;;5033201;28;88175;-41
2023/05/20 05:42:51;;;;;;;;;;;14.80;71.10;;;;;;5030071;28;88242;-41
2023/05/20 05:45:16;;;;;;;;;;;14.80;71.10;;;;;;5033723;28;87005;-41
2023/05/20 05:47:42;;;;;;;;;;;14.80;71.10;;;;;;5033128;27;88958;-40
2023/05/20 05:50:08;;;;;;;;;;;14.80;71.20;;;;;;5033116;28;87123;-41
2023/05/20 05:52:34;;;;;;;;;;;14.80;71.10;;;;;;5030868;27;89111;-41
2023/05/20 05:55:00;;;;;;;;;;;14.80;71.10;;;;;;5032157;28;88969;-41
2023/05/20 05:57:25;;;;;;;;;;;14.80;71.10;;;;;;5031807;28;86379;-41
2023/05/20 05:59:51;;;;;;;;;;;14.80;71.10;;;;;;5032246;28;88233;-41
2023/05/20 06:02:16;;;;;;;;;;;14.90;71.20;;;;;;5031264;28;88769;-41
2023/05/20 06:04:42;;;;;;;;;;;14.80;71.20;;;;;;5030646;28;88084;-41
2023/05/20 06:07:08;;;;;;;;;;;14.80;71.30;;;;;;5032365;27;90194;-41
2023/05/20 06:09:34;;;;;;;;;;;14.80;71.20;;;;;;5036450;28;87944;-41
2023/05/20 06:11:59;;;;;;;;;;;14.90;71.30;;;;;;5035761;27;89324;-41
2023/05/20 06:14:25;;;;;;;;;;;14.90;71.30;;;;;;5033689;28;89472;-40
2023/05/20 06:16:50;;;;;;;;;;;14.90;71.20;;;;;;5036633;28;87452;-40
2023/05/20 06:19:16;;;;;;;;;;;14.90;71.90;;;;;;5033767;28;88938;-41
2023/05/20 06:21:41;;;;;;;;;;;14.90;71.20;;;;;;5036834;28;87885;-41
2023/05/20 06:24:07;;;;;;;;;;;14.90;71.30;;;;;;5037135;28;87112;-40
2023/05/20 06:26:32;;;;;;;;;;;14.90;71.30;;;;;;5033166;28;88813;-41
2023/05/20 06:28:58;;;;;;;;;;;14.90;71.40;;;;;;5035629;28;90376;-41
2023/05/20 06:31:24;;;;;;;;;;;14.90;71.50;;;;;;5036316;28;86867;-40
2023/05/20 06:33:49;;;;;;;;;;;14.90;71.40;;;;;;5035401;28;89813;-41
2023/05/20 06:36:16;;;;;;;;;;;14.90;71.40;;;;;;5033843;28;87267;-41
2023/05/20 06:38:41;;;;;;;;;;;14.90;71.40;;;;;;5035485;28;89390;-41
2023/05/20 06:41:07;;;;;;;;;;;14.90;71.40;;;;;;5034008;28;89533;-41
2023/05/20 06:43:33;;;;;;;;;;;14.90;71.40;;;;;;5035049;28;87108;-41
2023/05/20 06:45:58;;;;;;;;;;;14.90;71.60;;;;;;5034941;28;89117;-41
2023/05/20 06:48:24;;;;;;;;;;;14.90;71.60;;;;;;5034224;28;89065;-41
2023/05/20 06:50:49;;;;;;;;;;;14.90;71.60;;;;;;5034805;28;87182;-41
2023/05/20 06:53:15;;;;;;;;;;;14.90;71.60;;;;;;5036074;28;89076;-41
2023/05/20 06:55:41;;;;;;;;;;;14.90;71.60;;;;;;5035328;28;87103;-41
2023/05/20 06:58:06;;;;;;;;;;;14.90;71.70;;;;;;5033714;28;89219;-41
2023/05/20 07:00:32;;;;;;;;;;;15.00;71.80;;;;;;5035280;28;88971;-41
2023/05/20 07:02:57;;;;;;;;;;;14.90;71.70;;;;;;5032793;28;87368;-41
2023/05/20 07:05:23;;;;;;;;;;;15.00;71.70;;;;;;5035550;28;87438;-41
2023/05/20 07:07:49;;;;;;;;;;;15.00;71.60;;;;;;5032228;28;89157;-41
2023/05/20 07:10:14;;;;;;;;;;;15.00;71.70;;;;;;5028800;28;86287;-40
2023/05/20 07:12:40;;;;;;;;;;;15.00;71.70;;;;;;5038139;28;87945;-40
2023/05/20 07:15:06;;;;;;;;;;;15.00;71.70;;;;;;5033101;28;87477;-41
2023/05/20 07:17:31;;;;;;;;;;;15.00;71.80;;;;;;5035153;28;88437;-40
2023/05/20 07:19:57;;;;;;;;;;;14.90;71.80;;;;;;5031287;28;90226;-40
2023/05/20 07:22:22;;;;;;;;;;;15.00;71.80;;;;;;5035171;28;87106;-40
2023/05/20 07:24:48;;;;;;;;;;;14.90;71.80;;;;;;5033470;28;88842;-40
2023/05/20 07:27:13;;;;;;;;;;;15.00;72.10;;;;;;5034092;28;88521;-40
2023/05/20 07:29:39;;;;;;;;;;;15.00;71.70;;;;;;5031735;28;87015;-41
2023/05/20 07:32:05;;;;;;;;;;;15.00;71.70;;;;;;5034235;27;88552;-41
2023/05/20 07:34:30;;;;;;;;;;;15.00;71.90;;;;;;5036406;28;88897;-40
2023/05/20 07:36:56;;;;;;;;;;;15.00;71.90;;;;;;5034480;27;88049;-41
2023/05/20 07:39:22;;;;;;;;;;;15.00;72.00;;;;;;5032819;28;89391;-41
2023/05/20 07:41:48;;;;;;;;;;;15.00;72.50;;;;;;5034288;28;88197;-41
2023/05/20 07:44:14;;;;;;;;;;;15.00;72.20;;;;;;5032255;28;89298;-41
2023/05/20 07:46:40;;;;;;;;;;;15.00;72.20;;;;;;5034819;28;89383;-41
2023/05/20 07:49:06;;;;;;;;;;;15.00;72.30;;;;;;5031542;28;87501;-41
2023/05/20 07:51:31;;;;;;;;;;;15.00;72.10;;;;;;5035024;28;89138;-41
2023/05/20 07:53:57;;;;;;;;;;;15.10;72.10;;;;;;5030923;28;89524;-41
2023/05/20 07:56:23;;;;;;;;;;;15.10;72.00;;;;;;5037241;28;87612;-41
2023/05/20 07:58:52;;;;;;;;;;;15.10;72.00;;;;;;5031904;28;88632;-41
2023/05/20 08:01:18;;;;;;;;;;;15.10;71.80;;;;;;5026941;28;87129;-41
2023/05/20 08:03:44;;;;;;;;;;;15.10;71.80;;;;;;5034772;28;87365;-41
2023/05/20 08:06:10;;;;;;;;;;;15.10;71.70;;;;;;5029150;28;90396;-41
2023/05/20 08:08:35;;;;;;;;;;;15.20;71.70;;;;;;5033465;28;87510;-41
2023/05/20 08:11:01;;;;;;;;;;;15.10;71.40;;;;;;5030804;27;89535;-41
2023/05/20 08:13:26;;;;;;;;;;;15.20;71.60;;;;;;5032545;28;89118;-41
2023/05/20 08:15:53;;;;;;;;;;;15.10;71.40;;;;;;5031211;28;87141;-41
2023/05/20 08:18:18;;;;;;;;;;;15.20;71.60;;;;;;5035051;28;88686;-40
2023/05/20 08:20:44;;;;;;;;;;;15.20;71.40;;;;;;5032181;28;87545;-41
2023/05/20 08:23:10;;;;;;;;;;;15.20;71.40;;;;;;5033438;28;87402;-41
2023/05/20 08:25:37;;;;;;;;;;;15.20;71.30;;;;;;5032815;28;89139;-41
2023/05/20 08:28:04;;;;;;;;;;;15.20;71.20;;;;;;5033042;28;87075;-41
2023/05/20 08:30:29;;;;;;;;;;;15.30;71.00;;;;;;5032234;27;88298;-41
2023/05/20 08:32:55;;;;;;;;;;;15.30;71.20;;;;;;5030527;28;88631;-41
2023/05/20 08:35:21;;;;;;;;;;;15.30;71.10;;;;;;5032841;28;87470;-41
2023/05/20 08:37:46;;;;;;;;;;;15.30;71.10;;;;;;5032028;28;87365;-41
2023/05/20 08:40:12;;;;;;;;;;;15.30;71.20;;;;;;5036081;28;89450;-40
2023/05/20 08:42:42;;;;;;;;;;;15.40;71.70;;;;;;5031160;28;88788;-41
2023/05/20 08:45:10;;;;;;;;;;;15.40;71.20;;;;;;5032161;28;89907;-41
2023/05/20 08:47:37;;;;;;;;;;;15.40;71.40;;;;;;5031127;28;86340;-40
2023/05/20 08:50:02;;;;;;;;;;;15.40;71.30;;;;;;5032648;27;88401;-41
2023/05/20 08:52:30;;;;;;;;;;;15.40;71.40;;;;;;5029665;28;89335;-41
2023/05/20 08:54:56;;;;;;;;;;;15.40;71.40;;;;;;5032037;28;88240;-41
2023/05/20 08:57:22;;;;;;;;;;;15.40;71.30;;;;;;5030349;28;89436;-40
2023/05/20 08:59:48;;;;;;;;;;;15.40;71.50;;;;;;5033162;28;89114;-41
2023/05/20 09:02:14;;;;;;;;;;;15.40;71.30;;;;;;5032468;28;87388;-40
2023/05/20 09:04:39;;;;;;;;;;;15.50;71.50;;;;;;5032485;28;88355;-41
2023/05/20 09:07:05;;;;;;;;;;;15.50;71.50;;;;;;5025437;28;87292;-41
2023/05/20 09:09:33;;;;;;;;;;;15.50;71.50;;;;;;5033902;27;86998;-41
2023/05/20 09:11:59;;;;;;;;;;;15.60;71.20;;;;;;5029586;28;88546;-41
2023/05/20 09:14:26;;;;;;;;;;;15.60;71.10;;;;;;5032827;28;87178;-41
2023/05/20 09:16:51;;;;;;;;;;;15.60;71.30;;;;;;5029248;27;88838;-41
2023/05/20 09:19:19;;;;;;;;;;;15.60;71.70;;;;;;5031498;28;90758;-40
2023/05/20 09:21:46;;;;;;;;;;;15.60;71.70;;;;;;5036679;28;87535;-41
2023/05/20 09:24:11;;;;;;;;;;;15.60;71.30;;;;;;5029807;28;89496;-41
2023/05/20 09:26:37;;;;;;;;;;;15.70;71.40;;;;;;5032436;28;87147;-41
2023/05/20 09:29:02;;;;;;;;;;;15.70;71.30;;;;;;5030458;27;89191;-41
2023/05/20 09:31:32;;;;;;;;;;;15.70;71.30;;;;;;5031215;28;89865;-41
2023/05/20 09:34:01;;;;;;;;;;;15.70;71.00;;;;;;5030619;28;87025;-41
2023/05/20 09:36:28;;;;;;;;;;;15.80;71.00;;;;;;5033773;28;87589;-41
2023/05/20 09:38:58;;;;;;;;;;;15.80;71.00;;;;;;5029734;28;89751;-41
2023/05/20 09:41:25;;;;;;;;;;;15.80;70.90;;;;;;5033140;28;87197;-41
2023/05/20 09:43:51;;;;;;;;;;;15.80;70.90;;;;;;5031481;27;88902;-41
2023/05/20 09:46:17;;;;;;;;;;;15.80;70.90;;;;;;5032857;28;87214;-41
2023/05/20 09:48:43;;;;;;;;;;;15.80;70.90;;;;;;5029840;27;87801;-41
2023/05/20 09:51:09;;;;;;;;;;;15.80;71.20;;;;;;5031117;28;89375;-40
2023/05/20 09:53:35;;;;;;;;;;;15.90;71.40;;;;;;5029607;28;87284;-41
2023/05/20 09:56:00;;;;;;;;;;;15.90;71.10;;;;;;5031605;28;88720;-41
2023/05/20 09:58:27;;;;;;;;;;;15.90;71.10;;;;;;5030342;28;88528;-41
2023/05/20 10:00:53;;;;;;;;;;;15.90;70.80;;;;;;5030653;28;86349;-41
2023/05/20 10:03:20;;;;;;;;;;;16.00;71.00;;;;;;5030407;27;88382;-41
2023/05/20 10:05:51;;;;;;;;;;;16.00;70.80;;;;;;5032702;28;90065;-41
2023/05/20 10:08:40;;;;;;;;;;;16.00;70.70;;;;;;5029640;27;89569;-41
2023/05/20 10:11:13;;;;;;;;;;;16.00;70.90;;;;;;5026510;28;89550;-40
2023/05/20 10:13:42;;;;;;;;;;;16.00;70.90;;;;;;5030438;28;87060;-41
2023/05/20 10:16:07;;;;;;;;;;;16.00;71.20;;;;;;5030594;28;88731;-41
2023/05/20 10:18:48;;;;;;;;;;;16.00;70.70;;;;;;5030174;28;89488;-41
2023/05/20 10:21:15;;;;;;;;;;;16.10;70.10;;;;;;5024788;28;87094;-41
2023/05/20 10:23:40;;;;;;;;;;;16.10;70.70;;;;;;5024047;28;88451;-41
2023/05/20 10:26:06;;;;;;;;;;;16.10;70.70;;;;;;5031880;28;88665;-41
2023/05/20 10:28:36;;;;;;;;;;;16.20;71.10;;;;;;5031897;28;87107;-41
2023/05/20 10:31:01;;;;;;;;;;;16.20;70.70;;;;;;5031345;28;88375;-41
2023/05/20 10:33:27;;;;;;;;;;;16.20;70.70;;;;;;5027393;28;88090;-41
2023/05/20 10:35:54;;;;;;;;;;;16.20;70.70;;;;;;5030968;28;89840;-41
2023/05/20 10:38:20;;;;;;;;;;;16.20;71.00;;;;;;5028007;28;89388;-41
2023/05/20 10:40:45;;;;;;;;;;;16.30;70.80;;;;;;5031518;28;87172;-40
2023/05/20 10:43:15;;;;;;;;;;;16.30;70.70;;;;;;5028795;28;88959;-41
2023/05/20 10:45:51;;;;;;;;;;;16.30;70.90;;;;;;5030421;28;89682;-41
2023/05/20 10:48:30;;;;;;;;;;;16.30;70.80;;;;;;5024208;28;87124;-41
2023/05/20 10:50:56;;;;;;;;;;;16.30;70.70;;;;;;5032178;28;88711;-41
2023/05/20 10:53:23;;;;;;;;;;;16.40;70.50;;;;;;5029230;28;87274;-40
2023/05/20 10:55:50;;;;;;;;;;;16.40;70.60;;;;;;5032726;27;88801;-40
2023/05/20 10:58:16;;;;;;;;;;;16.40;70.60;;;;;;5030372;28;90146;-41
2023/05/20 11:00:42;;;;;;;;;;;16.40;70.30;;;;;;5033558;28;87507;-41
2023/05/20 11:03:08;;;;;;;;;;;16.40;69.90;;;;;;5032563;28;89074;-41
2023/05/20 11:05:34;;;;;;;;;;;16.40;69.60;;;;;;5030235;28;89330;-41
2023/05/20 11:08:03;;;;;;;;;;;16.50;69.90;;;;;;5034134;28;87082;-41
2023/05/20 11:10:29;;;;;;;;;;;16.50;69.70;;;;;;5034799;28;88773;-41
2023/05/20 11:12:55;;;;;;;;;;;16.50;69.80;;;;;;5033462;28;87111;-41
2023/05/20 11:15:22;;;;;;;;;;;16.50;69.70;;;;;;5032367;28;88787;-41
2023/05/20 11:17:52;;;;;;;;;;;16.50;69.60;;;;;;5033704;28;89442;-41
2023/05/20 11:20:18;;;;;;;;;;;16.50;69.60;;;;;;5031697;28;87157;-40
2023/05/20 11:22:43;;;;;;;;;;;16.60;69.60;;;;;;5033593;28;89127;-41
2023/05/20 11:25:09;;;;;;;;;;;16.60;69.70;;;;;;5030849;28;89938;-41
2023/05/20 11:27:38;;;;;;;;;;;16.60;69.60;;;;;;5034248;28;87091;-40
2023/05/20 11:30:04;;;;;;;;;;;16.60;69.60;;;;;;5031171;28;89243;-41
2023/05/20 11:32:30;;;;;;;;;;;16.60;69.20;;;;;;5036974;28;89730;-40
2023/05/20 11:34:56;;;;;;;;;;;16.70;69.40;;;;;;5031369;28;87208;-41
2023/05/20 11:37:22;;;;;;;;;;;16.70;69.30;;;;;;5033871;28;89314;-40
2023/05/20 11:39:48;;;;;;;;;;;16.80;69.50;;;;;;5031223;28;86809;-41
2023/05/20 11:42:14;;;;;;;;;;;16.80;69.30;;;;;;5026652;28;87814;-41
2023/05/20 11:44:43;;;;;;;;;;;16.80;69.50;;;;;;5033802;28;87999;-41
2023/05/20 11:47:08;;;;;;;;;;;16.80;69.10;;;;;;5025727;28;88319;-41
2023/05/20 11:49:40;;;;;;;;;;;16.90;69.20;;;;;;5033798;28;90007;-41
2023/05/20 11:52:07;;;;;;;;;;;16.90;68.70;;;;;;5026899;28;87320;-41
2023/05/20 11:54:34;;;;;;;;;;;16.90;69.00;;;;;;5037239;28;87101;-40
2023/05/20 11:56:59;;;;;;;;;;;16.90;69.60;;;;;;5030165;28;89366;-41
2023/05/20 11:59:25;;;;;;;;;;;17.00;69.00;;;;;;5034671;28;87418;-41
2023/05/20 12:01:51;;;;;;;;;;;17.00;69.50;;;;;;5030541;28;87365;-41
2023/05/20 12:04:17;;;;;;;;;;;17.00;69.20;;;;;;5033861;28;88022;-40
2023/05/20 12:06:42;;;;;;;;;;;17.00;68.80;;;;;;5030857;28;87092;-41
2023/05/20 12:09:09;;;;;;;;;;;17.00;69.10;;;;;;5034128;28;87551;-41
2023/05/20 12:11:35;;;;;;;;;;;17.00;69.10;;;;;;5030300;28;90200;-40
2023/05/20 12:14:03;;;;;;;;;;;17.10;69.50;;;;;;5033343;28;87026;-40
2023/05/20 12:16:30;;;;;;;;;;;17.00;69.40;;;;;;5034083;28;89174;-41
2023/05/20 12:18:56;;;;;;;;;;;17.10;69.00;;;;;;5033777;28;87166;-41
2023/05/20 12:21:21;;;;;;;;;;;17.00;69.50;;;;;;5031492;27;88770;-40
2023/05/20 12:23:47;;;;;;;;;;;17.10;69.30;;;;;;5032748;28;89865;-41
2023/05/20 12:26:12;;;;;;;;;;;17.10;69.40;;;;;;5034601;28;87127;-41
2023/05/20 12:28:39;;;;;;;;;;;17.10;69.20;;;;;;5033610;27;89080;-41
2023/05/20 12:31:04;;;;;;;;;;;17.10;69.00;;;;;;5032345;28;89387;-41
2023/05/20 12:33:30;;;;;;;;;;;17.10;69.00;;;;;;5032765;28;87145;-41
2023/05/20 12:35:56;;;;;;;;;;;17.10;69.30;;;;;;5031022;28;88528;-41
2023/05/20 12:38:22;;;;;;;;;;;17.20;69.00;;;;;;5035576;28;89344;-41
2023/05/20 12:40:47;;;;;;;;;;;17.20;68.80;;;;;;5031967;28;88901;-41
2023/05/20 12:43:13;;;;;;;;;;;17.20;69.20;;;;;;5033518;28;88728;-41
2023/05/20 12:45:38;;;;;;;;;;;17.20;68.90;;;;;;5030624;28;87557;-41
2023/05/20 12:48:05;;;;;;;;;;;17.20;69.10;;;;;;5033892;28;88842;-41
2023/05/20 12:50:31;;;;;;;;;;;17.20;69.00;;;;;;5029791;28;88499;-40
2023/05/20 12:52:56;;;;;;;;;;;17.20;69.00;;;;;;5034400;28;86458;-41
2023/05/20 12:55:22;;;;;;;;;;;17.30;69.20;;;;;;5029879;27;88462;-41
2023/05/20 12:57:48;;;;;;;;;;;17.20;69.20;;;;;;5033616;28;89754;-41
2023/05/20 13:00:14;;;;;;;;;;;17.20;69.00;;;;;;5033271;28;88135;-41
2023/05/20 13:02:40;;;;;;;;;;;17.20;69.00;;;;;;5033233;28;90115;-41
2023/05/20 13:05:06;;;;;;;;;;;17.20;69.00;;;;;;5030858;28;87153;-41
2023/05/20 13:07:32;;;;;;;;;;;17.20;69.10;;;;;;5033388;28;88532;-41
2023/05/20 13:09:57;;;;;;;;;;;17.20;69.10;;;;;;5031475;28;89419;-41
2023/05/20 13:12:23;;;;;;;;;;;17.20;69.30;;;;;;5032840;28;87236;-40
2023/05/20 13:14:49;;;;;;;;;;;17.20;69.40;;;;;;5032316;27;89096;-41
2023/05/20 13:17:14;;;;;;;;;;;17.20;69.40;;;;;;5032138;28;89002;-41
2023/05/20 13:19:40;;;;;;;;;;;17.20;69.50;;;;;;5035570;28;87184;-41
2023/05/20 13:22:05;;;;;;;;;;;17.30;69.50;;;;;;5031876;28;88202;-41
2023/05/20 13:24:31;;;;;;;;;;;17.30;69.40;;;;;;5032483;28;88062;-41
2023/05/20 13:26:56;;;;;;;;;;;17.30;69.40;;;;;;5031319;28;89534;-40
2023/05/20 13:29:22;;;;;;;;;;;17.30;69.40;;;;;;5033040;28;89799;-41
2023/05/20 13:31:48;;;;;;;;;;;17.30;69.40;;;;;;5030717;28;87669;-40
2023/05/20 13:34:13;;;;;;;;;;;17.30;69.40;;;;;;5033837;28;89289;-41
2023/05/20 13:36:39;;;;;;;;;;;17.40;70.00;;;;;;5029724;28;89728;-41
2023/05/20 13:39:05;;;;;;;;;;;17.40;69.40;;;;;;5026154;28;86906;-40
2023/05/20 13:41:30;;;;;;;;;;;17.50;69.50;;;;;;5036680;28;88803;-41
2023/05/20 13:43:56;;;;;;;;;;;17.60;69.40;;;;;;5029148;28;87586;-39
2023/05/20 13:46:21;;;;;;;;;;;17.60;69.10;;;;;;5031063;28;87344;-38
2023/05/20 13:48:47;;;;;;;;;;;17.60;69.10;;;;;;5032259;28;89085;-36
2023/05/20 13:51:13;;;;;;;;;;;17.70;68.40;;;;;;5031126;28;87230;-38
2023/05/20 13:53:38;;;;;;;;;;;17.70;67.40;;;;;;5032630;28;87421;-38
2023/05/20 13:56:04;;;;;;;;;;;17.70;67.60;;;;;;5031280;28;87555;-37
2023/05/20 13:58:30;;;;;;;;;;;17.70;67.60;;;;;;5031742;28;87111;-44
2023/05/20 14:00:55;;;;;;;;;;;17.80;67.90;;;;;;5032221;27;86998;-49
2023/05/20 14:03:21;;;;;;;;;;;17.80;67.40;;;;;;5033361;28;89682;-43
2023/05/20 14:05:47;;;;;;;;;;;17.90;65.90;;;;;;5031568;27;88886;-44
2023/05/20 14:08:12;;;;;;;;;;;17.80;66.70;;;;;;5030451;28;88002;-47
2023/05/20 14:10:38;;;;;;;;;;;17.80;65.90;;;;;;5031751;28;87207;-39